sensor_id;sensor_type;location;lat;lon;timestamp;P1;durP1;ratioP1;P2;durP2;ratioP2
20729;SDS011;10526;50.850;12.928;2023-04-08T00:01:03;15.35;;;5.97;;
20729;SDS011;10526;50.850;12.928;2023-04-08T00:05:25;15.82;;;6.80;;
20729;SDS011;10526;50.850;12.928;2023-04-08T00:09:48;14.40;;;5.32;;
20729;SDS011;10526;50.850;12.928;2023-04-08T00:14:10;13.90;;;6.13;;
20729;SDS011;10526;50.850;12.928;2023-04-08T00:18:33;13.38;;;5.47;;
20729;SDS011;10526;50.850;12.928;2023-04-08T00:22:54;17.30;;;6.82;;
20729;SDS011;10526;50.850;12.928;2023-04-08T00:27:18;17.50;;;6.10;;
20729;SDS011;10526;50.850;12.928;2023-04-08T00:31:40;15.55;;;6.30;;
20729;SDS011;10526;50.850;12.928;2023-04-08T00:36:03;15.07;;;6.07;;
20729;SDS011;10526;50.850;12.928;2023-04-08T00:40:25;13.23;;;4.88;;
20729;SDS011;10526;50.850;12.928;2023-04-08T00:44:47;16.38;;;6.40;;
20729;SDS011;10526;50.850;12.928;2023-04-08T00:49:09;13.40;;;5.35;;
20729;SDS011;10526;50.850;12.928;2023-04-08T00:53:33;14.25;;;5.57;;
20729;SDS011;10526;50.850;12.928;2023-04-08T00:57:55;15.75;;;5.80;;
20729;SDS011;10526;50.850;12.928;2023-04-08T01:07:19;15.27;;;5.95;;
20729;SDS011;10526;50.850;12.928;2023-04-08T01:11:48;14.90;;;5.65;;
20729;SDS011;10526;50.850;12.928;2023-04-08T01:16:13;10.95;;;4.88;;
20729;SDS011;10526;50.850;12.928;2023-04-08T01:20:37;13.18;;;5.30;;
20729;SDS011;10526;50.850;12.928;2023-04-08T01:25:09;14.05;;;5.68;;
20729;SDS011;10526;50.850;12.928;2023-04-08T01:29:54;12.00;;;4.82;;
20729;SDS011;10526;50.850;12.928;2023-04-08T01:34:18;11.93;;;5.20;;
20729;SDS011;10526;50.850;12.928;2023-04-08T01:38:41;13.45;;;4.50;;
20729;SDS011;10526;50.850;12.928;2023-04-08T01:43:05;11.65;;;4.13;;
20729;SDS011;10526;50.850;12.928;2023-04-08T01:47:31;10.88;;;4.20;;
20729;SDS011;10526;50.850;12.928;2023-04-08T01:51:56;11.68;;;4.68;;
20729;SDS011;10526;50.850;12.928;2023-04-08T01:56:21;11.27;;;4.90;;
20729;SDS011;10526;50.850;12.928;2023-04-08T02:00:44;10.00;;;3.92;;
20729;SDS011;10526;50.850;12.928;2023-04-08T02:05:07;12.70;;;4.38;;
20729;SDS011;10526;50.850;12.928;2023-04-08T02:09:29;10.43;;;4.22;;
20729;SDS011;10526;50.850;12.928;2023-04-08T02:13:51;12.82;;;4.82;;
20729;SDS011;10526;50.850;12.928;2023-04-08T02:18:15;12.65;;;4.82;;
20729;SDS011;10526;50.850;12.928;2023-04-08T02:22:51;12.18;;;4.40;;
20729;SDS011;10526;50.850;12.928;2023-04-08T02:27:33;13.15;;;4.07;;
20729;SDS011;10526;50.850;12.928;2023-04-08T02:31:56;11.35;;;4.43;;
20729;SDS011;10526;50.850;12.928;2023-04-08T02:36:19;9.20;;;3.47;;
20729;SDS011;10526;50.850;12.928;2023-04-08T02:40:44;11.55;;;3.75;;
20729;SDS011;10526;50.850;12.928;2023-04-08T02:45:09;13.88;;;4.60;;
20729;SDS011;10526;50.850;12.928;2023-04-08T02:49:31;9.57;;;3.70;;
20729;SDS011;10526;50.850;12.928;2023-04-08T02:53:53;10.52;;;3.72;;
20729;SDS011;10526;50.850;12.928;2023-04-08T02:58:15;12.65;;;4.95;;
20729;SDS011;10526;50.850;12.928;2023-04-08T03:02:38;12.65;;;3.92;;
20729;SDS011;10526;50.850;12.928;2023-04-08T03:07:00;9.88;;;3.58;;
20729;SDS011;10526;50.850;12.928;2023-04-08T03:11:22;12.18;;;3.72;;
20729;SDS011;10526;50.850;12.928;2023-04-08T03:15:44;13.50;;;4.10;;
20729;SDS011;10526;50.850;12.928;2023-04-08T03:20:07;11.93;;;3.13;;
20729;SDS011;10526;50.850;12.928;2023-04-08T03:24:30;12.23;;;4.00;;
20729;SDS011;10526;50.850;12.928;2023-04-08T03:28:52;11.18;;;4.40;;
20729;SDS011;10526;50.850;12.928;2023-04-08T03:33:14;10.00;;;3.83;;
20729;SDS011;10526;50.850;12.928;2023-04-08T03:37:36;9.05;;;3.85;;
20729;SDS011;10526;50.850;12.928;2023-04-08T03:41:59;11.63;;;3.92;;
20729;SDS011;10526;50.850;12.928;2023-04-08T03:46:21;8.57;;;2.72;;
20729;SDS011;10526;50.850;12.928;2023-04-08T03:50:43;9.10;;;3.35;;
20729;SDS011;10526;50.850;12.928;2023-04-08T03:55:05;7.07;;;2.65;;
20729;SDS011;10526;50.850;12.928;2023-04-08T03:59:28;5.65;;;2.60;;
20729;SDS011;10526;50.850;12.928;2023-04-08T04:03:50;8.40;;;2.92;;
20729;SDS011;10526;50.850;12.928;2023-04-08T04:08:12;3.67;;;2.05;;
20729;SDS011;10526;50.850;12.928;2023-04-08T04:12:34;4.43;;;2.22;;
20729;SDS011;10526;50.850;12.928;2023-04-08T04:16:56;4.85;;;2.50;;
20729;SDS011;10526;50.850;12.928;2023-04-08T04:21:18;5.80;;;2.42;;
20729;SDS011;10526;50.850;12.928;2023-04-08T04:25:41;3.72;;;1.90;;
20729;SDS011;10526;50.850;12.928;2023-04-08T04:30:04;6.97;;;2.42;;
20729;SDS011;10526;50.850;12.928;2023-04-08T04:34:27;4.93;;;2.03;;
20729;SDS011;10526;50.850;12.928;2023-04-08T04:38:49;7.28;;;2.55;;
20729;SDS011;10526;50.850;12.928;2023-04-08T04:43:12;11.15;;;3.17;;
20729;SDS011;10526;50.850;12.928;2023-04-08T04:47:34;5.57;;;2.53;;
20729;SDS011;10526;50.850;12.928;2023-04-08T04:51:56;7.63;;;2.42;;
20729;SDS011;10526;50.850;12.928;2023-04-08T04:56:18;8.20;;;2.85;;
20729;SDS011;10526;50.850;12.928;2023-04-08T05:00:42;6.15;;;2.00;;
20729;SDS011;10526;50.850;12.928;2023-04-08T05:05:04;9.50;;;2.95;;
20729;SDS011;10526;50.850;12.928;2023-04-08T05:09:27;6.25;;;2.55;;
20729;SDS011;10526;50.850;12.928;2023-04-08T05:13:50;7.55;;;2.58;;
20729;SDS011;10526;50.850;12.928;2023-04-08T05:18:12;8.60;;;2.88;;
20729;SDS011;10526;50.850;12.928;2023-04-08T05:22:34;6.45;;;2.63;;
20729;SDS011;10526;50.850;12.928;2023-04-08T05:26:47;5.28;;;1.98;;
20729;SDS011;10526;50.850;12.928;2023-04-08T05:31:17;6.53;;;2.20;;
20729;SDS011;10526;50.850;12.928;2023-04-08T05:35:39;5.78;;;2.55;;
20729;SDS011;10526;50.850;12.928;2023-04-08T05:40:02;7.35;;;2.92;;
20729;SDS011;10526;50.850;12.928;2023-04-08T05:44:24;5.43;;;1.88;;
20729;SDS011;10526;50.850;12.928;2023-04-08T05:48:46;4.85;;;1.98;;
20729;SDS011;10526;50.850;12.928;2023-04-08T05:53:09;5.28;;;2.10;;
20729;SDS011;10526;50.850;12.928;2023-04-08T05:57:31;6.30;;;2.50;;
20729;SDS011;10526;50.850;12.928;2023-04-08T06:01:53;3.70;;;2.03;;
20729;SDS011;10526;50.850;12.928;2023-04-08T06:06:15;5.75;;;2.60;;
20729;SDS011;10526;50.850;12.928;2023-04-08T06:10:37;7.28;;;2.67;;
20729;SDS011;10526;50.850;12.928;2023-04-08T06:14:59;5.35;;;2.38;;
20729;SDS011;10526;50.850;12.928;2023-04-08T06:19:21;6.28;;;2.72;;
20729;SDS011;10526;50.850;12.928;2023-04-08T06:23:45;5.22;;;2.03;;
20729;SDS011;10526;50.850;12.928;2023-04-08T06:28:07;5.38;;;2.15;;
20729;SDS011;10526;50.850;12.928;2023-04-08T06:32:29;7.07;;;2.45;;
20729;SDS011;10526;50.850;12.928;2023-04-08T06:36:51;6.53;;;2.92;;
20729;SDS011;10526;50.850;12.928;2023-04-08T06:41:13;5.90;;;2.17;;
20729;SDS011;10526;50.850;12.928;2023-04-08T06:45:35;3.92;;;1.63;;
20729;SDS011;10526;50.850;12.928;2023-04-08T06:49:58;4.65;;;1.85;;
20729;SDS011;10526;50.850;12.928;2023-04-08T06:54:19;4.15;;;1.92;;
20729;SDS011;10526;50.850;12.928;2023-04-08T06:58:42;2.83;;;1.25;;
20729;SDS011;10526;50.850;12.928;2023-04-08T07:03:04;3.90;;;1.83;;
20729;SDS011;10526;50.850;12.928;2023-04-08T07:07:26;5.05;;;2.13;;
20729;SDS011;10526;50.850;12.928;2023-04-08T07:11:48;3.30;;;1.60;;
20729;SDS011;10526;50.850;12.928;2023-04-08T07:16:10;4.60;;;2.40;;
20729;SDS011;10526;50.850;12.928;2023-04-08T07:20:32;4.93;;;2.50;;
20729;SDS011;10526;50.850;12.928;2023-04-08T07:24:58;8.02;;;2.50;;
20729;SDS011;10526;50.850;12.928;2023-04-08T07:29:20;5.97;;;2.42;;
20729;SDS011;10526;50.850;12.928;2023-04-08T07:33:43;7.22;;;2.95;;
20729;SDS011;10526;50.850;12.928;2023-04-08T07:38:05;7.90;;;3.13;;
20729;SDS011;10526;50.850;12.928;2023-04-08T07:42:31;11.98;;;4.50;;
20729;SDS011;10526;50.850;12.928;2023-04-08T07:46:53;11.98;;;4.60;;
20729;SDS011;10526;50.850;12.928;2023-04-08T07:51:15;19.00;;;7.53;;
20729;SDS011;10526;50.850;12.928;2023-04-08T07:55:40;11.00;;;4.22;;
20729;SDS011;10526;50.850;12.928;2023-04-08T08:00:03;12.88;;;4.30;;
20729;SDS011;10526;50.850;12.928;2023-04-08T08:04:32;12.07;;;4.50;;
20729;SDS011;10526;50.850;12.928;2023-04-08T08:08:55;13.40;;;4.57;;
20729;SDS011;10526;50.850;12.928;2023-04-08T08:13:17;14.40;;;4.38;;
20729;SDS011;10526;50.850;12.928;2023-04-08T08:17:42;12.15;;;4.32;;
20729;SDS011;10526;50.850;12.928;2023-04-08T08:22:04;15.65;;;5.15;;
20729;SDS011;10526;50.850;12.928;2023-04-08T08:26:26;16.95;;;6.75;;
20729;SDS011;10526;50.850;12.928;2023-04-08T08:30:49;58.17;;;17.95;;
20729;SDS011;10526;50.850;12.928;2023-04-08T08:35:11;26.23;;;9.98;;
20729;SDS011;10526;50.850;12.928;2023-04-08T08:39:33;31.15;;;10.35;;
20729;SDS011;10526;50.850;12.928;2023-04-08T08:43:55;23.98;;;10.40;;
20729;SDS011;10526;50.850;12.928;2023-04-08T08:48:20;27.65;;;12.10;;
20729;SDS011;10526;50.850;12.928;2023-04-08T08:52:49;32.85;;;12.80;;
20729;SDS011;10526;50.850;12.928;2023-04-08T08:57:18;33.90;;;11.75;;
20729;SDS011;10526;50.850;12.928;2023-04-08T09:01:40;28.83;;;12.77;;
20729;SDS011;10526;50.850;12.928;2023-04-08T09:06:04;32.88;;;13.50;;
20729;SDS011;10526;50.850;12.928;2023-04-08T09:10:27;32.75;;;13.63;;
20729;SDS011;10526;50.850;12.928;2023-04-08T09:14:50;41.28;;;18.55;;
20729;SDS011;10526;50.850;12.928;2023-04-08T09:19:23;31.30;;;13.40;;
20729;SDS011;10526;50.850;12.928;2023-04-08T09:23:46;36.08;;;13.77;;
20729;SDS011;10526;50.850;12.928;2023-04-08T09:28:19;31.13;;;13.10;;
20729;SDS011;10526;50.850;12.928;2023-04-08T09:32:48;33.53;;;13.52;;
20729;SDS011;10526;50.850;12.928;2023-04-08T09:37:21;34.45;;;13.82;;
20729;SDS011;10526;50.850;12.928;2023-04-08T09:41:44;27.00;;;11.70;;
20729;SDS011;10526;50.850;12.928;2023-04-08T09:46:11;27.38;;;11.65;;
20729;SDS011;10526;50.850;12.928;2023-04-08T09:50:36;24.42;;;10.52;;
20729;SDS011;10526;50.850;12.928;2023-04-08T09:55:11;30.63;;;13.68;;
20729;SDS011;10526;50.850;12.928;2023-04-08T09:59:35;31.38;;;13.52;;
20729;SDS011;10526;50.850;12.928;2023-04-08T10:03:59;28.63;;;12.63;;
20729;SDS011;10526;50.850;12.928;2023-04-08T10:08:23;28.95;;;11.63;;
20729;SDS011;10526;50.850;12.928;2023-04-08T10:12:47;24.65;;;10.98;;
20729;SDS011;10526;50.850;12.928;2023-04-08T10:17:25;26.33;;;10.63;;
20729;SDS011;10526;50.850;12.928;2023-04-08T10:21:48;25.65;;;10.05;;
20729;SDS011;10526;50.850;12.928;2023-04-08T10:26:28;20.35;;;9.77;;
20729;SDS011;10526;50.850;12.928;2023-04-08T10:31:01;17.65;;;7.57;;
20729;SDS011;10526;50.850;12.928;2023-04-08T10:35:36;19.17;;;7.88;;
20729;SDS011;10526;50.850;12.928;2023-04-08T10:40:06;15.98;;;6.88;;
20729;SDS011;10526;50.850;12.928;2023-04-08T10:44:43;18.92;;;7.20;;
20729;SDS011;10526;50.850;12.928;2023-04-08T10:49:06;22.35;;;6.75;;
20729;SDS011;10526;50.850;12.928;2023-04-08T10:53:32;13.18;;;5.60;;
20729;SDS011;10526;50.850;12.928;2023-04-08T10:58:09;12.93;;;5.13;;
20729;SDS011;10526;50.850;12.928;2023-04-08T11:02:32;12.07;;;4.55;;
20729;SDS011;10526;50.850;12.928;2023-04-08T11:06:54;12.13;;;5.18;;
20729;SDS011;10526;50.850;12.928;2023-04-08T11:11:17;10.48;;;4.57;;
20729;SDS011;10526;50.850;12.928;2023-04-08T11:15:39;11.77;;;4.72;;
20729;SDS011;10526;50.850;12.928;2023-04-08T11:20:03;11.48;;;4.38;;
20729;SDS011;10526;50.850;12.928;2023-04-08T11:24:27;11.20;;;4.90;;
20729;SDS011;10526;50.850;12.928;2023-04-08T11:28:49;12.20;;;4.95;;
20729;SDS011;10526;50.850;12.928;2023-04-08T11:33:12;12.77;;;4.82;;
20729;SDS011;10526;50.850;12.928;2023-04-08T11:37:35;11.75;;;4.65;;
20729;SDS011;10526;50.850;12.928;2023-04-08T11:42:02;11.57;;;4.45;;
20729;SDS011;10526;50.850;12.928;2023-04-08T11:46:24;12.88;;;5.25;;
20729;SDS011;10526;50.850;12.928;2023-04-08T11:50:46;12.27;;;4.65;;
20729;SDS011;10526;50.850;12.928;2023-04-08T11:55:11;13.93;;;5.35;;
20729;SDS011;10526;50.850;12.928;2023-04-08T11:59:42;11.93;;;4.82;;
20729;SDS011;10526;50.850;12.928;2023-04-08T12:04:05;11.02;;;4.55;;
20729;SDS011;10526;50.850;12.928;2023-04-08T12:08:30;13.82;;;5.20;;
20729;SDS011;10526;50.850;12.928;2023-04-08T12:12:52;14.38;;;4.68;;
20729;SDS011;10526;50.850;12.928;2023-04-08T12:17:14;14.38;;;4.70;;
20729;SDS011;10526;50.850;12.928;2023-04-08T12:21:36;12.75;;;4.55;;
20729;SDS011;10526;50.850;12.928;2023-04-08T12:25:59;15.40;;;4.75;;
20729;SDS011;10526;50.850;12.928;2023-04-08T12:30:21;13.45;;;4.38;;
20729;SDS011;10526;50.850;12.928;2023-04-08T12:34:43;11.38;;;4.70;;
20729;SDS011;10526;50.850;12.928;2023-04-08T12:39:05;17.58;;;5.45;;
20729;SDS011;10526;50.850;12.928;2023-04-08T12:43:27;13.43;;;4.70;;
20729;SDS011;10526;50.850;12.928;2023-04-08T12:47:49;13.32;;;4.70;;
20729;SDS011;10526;50.850;12.928;2023-04-08T12:52:11;17.63;;;5.53;;
20729;SDS011;10526;50.850;12.928;2023-04-08T12:56:34;13.93;;;5.70;;
20729;SDS011;10526;50.850;12.928;2023-04-08T13:00:56;16.70;;;5.82;;
20729;SDS011;10526;50.850;12.928;2023-04-08T13:05:18;14.85;;;5.85;;
20729;SDS011;10526;50.850;12.928;2023-04-08T13:09:53;15.23;;;5.70;;
20729;SDS011;10526;50.850;12.928;2023-04-08T13:14:15;17.80;;;6.72;;
20729;SDS011;10526;50.850;12.928;2023-04-08T13:18:37;17.98;;;7.18;;
20729;SDS011;10526;50.850;12.928;2023-04-08T13:22:59;16.00;;;6.03;;
20729;SDS011;10526;50.850;12.928;2023-04-08T13:27:21;22.10;;;7.25;;
20729;SDS011;10526;50.850;12.928;2023-04-08T13:31:44;17.30;;;7.55;;
20729;SDS011;10526;50.850;12.928;2023-04-08T13:36:06;19.60;;;7.43;;
20729;SDS011;10526;50.850;12.928;2023-04-08T13:40:28;19.70;;;7.68;;
20729;SDS011;10526;50.850;12.928;2023-04-08T13:44:52;19.38;;;7.50;;
20729;SDS011;10526;50.850;12.928;2023-04-08T13:49:13;19.00;;;8.75;;
20729;SDS011;10526;50.850;12.928;2023-04-08T13:53:36;32.70;;;14.73;;
20729;SDS011;10526;50.850;12.928;2023-04-08T13:57:58;23.40;;;10.38;;
20729;SDS011;10526;50.850;12.928;2023-04-08T14:02:20;22.92;;;9.00;;
20729;SDS011;10526;50.850;12.928;2023-04-08T14:06:43;17.85;;;7.90;;
20729;SDS011;10526;50.850;12.928;2023-04-08T14:11:05;22.20;;;9.50;;
20729;SDS011;10526;50.850;12.928;2023-04-08T14:15:28;21.73;;;8.63;;
20729;SDS011;10526;50.850;12.928;2023-04-08T14:19:50;26.75;;;10.25;;
20729;SDS011;10526;50.850;12.928;2023-04-08T14:24:12;21.77;;;9.05;;
20729;SDS011;10526;50.850;12.928;2023-04-08T14:28:34;20.48;;;9.25;;
20729;SDS011;10526;50.850;12.928;2023-04-08T14:32:57;18.08;;;8.10;;
20729;SDS011;10526;50.850;12.928;2023-04-08T14:37:21;29.95;;;11.35;;
20729;SDS011;10526;50.850;12.928;2023-04-08T14:41:43;24.65;;;10.45;;
20729;SDS011;10526;50.850;12.928;2023-04-08T14:46:06;23.73;;;9.38;;
20729;SDS011;10526;50.850;12.928;2023-04-08T14:50:28;24.05;;;10.50;;
20729;SDS011;10526;50.850;12.928;2023-04-08T14:54:51;23.40;;;10.30;;
20729;SDS011;10526;50.850;12.928;2023-04-08T14:59:14;25.92;;;10.25;;
20729;SDS011;10526;50.850;12.928;2023-04-08T15:03:35;23.60;;;10.10;;
20729;SDS011;10526;50.850;12.928;2023-04-08T15:07:57;23.58;;;10.30;;
20729;SDS011;10526;50.850;12.928;2023-04-08T15:12:19;24.00;;;10.10;;
20729;SDS011;10526;50.850;12.928;2023-04-08T15:16:42;23.10;;;10.07;;
20729;SDS011;10526;50.850;12.928;2023-04-08T15:21:04;25.65;;;11.27;;
20729;SDS011;10526;50.850;12.928;2023-04-08T15:25:27;27.20;;;11.88;;
20729;SDS011;10526;50.850;12.928;2023-04-08T15:29:49;26.80;;;9.98;;
20729;SDS011;10526;50.850;12.928;2023-04-08T15:34:11;25.10;;;11.45;;
20729;SDS011;10526;50.850;12.928;2023-04-08T15:38:33;23.85;;;11.32;;
20729;SDS011;10526;50.850;12.928;2023-04-08T15:42:55;30.63;;;14.13;;
20729;SDS011;10526;50.850;12.928;2023-04-08T15:47:18;24.33;;;11.52;;
20729;SDS011;10526;50.850;12.928;2023-04-08T15:51:40;30.27;;;13.48;;
20729;SDS011;10526;50.850;12.928;2023-04-08T15:56:04;22.50;;;11.00;;
20729;SDS011;10526;50.850;12.928;2023-04-08T16:00:27;31.25;;;13.90;;
20729;SDS011;10526;50.850;12.928;2023-04-08T16:04:50;29.45;;;12.98;;
20729;SDS011;10526;50.850;12.928;2023-04-08T16:09:12;25.55;;;10.82;;
20729;SDS011;10526;50.850;12.928;2023-04-08T16:13:33;26.70;;;11.77;;
20729;SDS011;10526;50.850;12.928;2023-04-08T16:17:58;31.77;;;13.82;;
20729;SDS011;10526;50.850;12.928;2023-04-08T16:22:22;26.38;;;11.20;;
20729;SDS011;10526;50.850;12.928;2023-04-08T16:26:44;30.17;;;10.90;;
20729;SDS011;10526;50.850;12.928;2023-04-08T16:31:06;30.33;;;12.18;;
20729;SDS011;10526;50.850;12.928;2023-04-08T16:35:28;27.42;;;11.02;;
20729;SDS011;10526;50.850;12.928;2023-04-08T16:39:50;26.23;;;11.20;;
20729;SDS011;10526;50.850;12.928;2023-04-08T16:44:12;30.02;;;11.15;;
20729;SDS011;10526;50.850;12.928;2023-04-08T16:48:34;22.42;;;10.75;;
20729;SDS011;10526;50.850;12.928;2023-04-08T16:52:56;28.58;;;11.30;;
20729;SDS011;10526;50.850;12.928;2023-04-08T16:57:18;27.30;;;10.73;;
20729;SDS011;10526;50.850;12.928;2023-04-08T17:01:41;23.55;;;11.82;;
20729;SDS011;10526;50.850;12.928;2023-04-08T17:06:09;27.02;;;12.48;;
20729;SDS011;10526;50.850;12.928;2023-04-08T17:10:34;25.55;;;10.80;;
20729;SDS011;10526;50.850;12.928;2023-04-08T17:14:56;28.08;;;11.20;;
20729;SDS011;10526;50.850;12.928;2023-04-08T17:19:18;18.55;;;9.20;;
20729;SDS011;10526;50.850;12.928;2023-04-08T17:23:40;26.52;;;10.90;;
20729;SDS011;10526;50.850;12.928;2023-04-08T17:28:02;27.33;;;11.07;;
20729;SDS011;10526;50.850;12.928;2023-04-08T17:32:26;28.48;;;11.80;;
20729;SDS011;10526;50.850;12.928;2023-04-08T17:36:48;24.65;;;9.20;;
20729;SDS011;10526;50.850;12.928;2023-04-08T17:41:10;21.73;;;9.40;;
20729;SDS011;10526;50.850;12.928;2023-04-08T17:45:35;25.35;;;10.85;;
20729;SDS011;10526;50.850;12.928;2023-04-08T17:49:58;20.95;;;9.93;;
20729;SDS011;10526;50.850;12.928;2023-04-08T17:54:20;31.50;;;10.38;;
20729;SDS011;10526;50.850;12.928;2023-04-08T17:58:43;27.25;;;11.57;;
20729;SDS011;10526;50.850;12.928;2023-04-08T18:03:08;22.50;;;8.68;;
20729;SDS011;10526;50.850;12.928;2023-04-08T18:07:31;21.90;;;9.20;;
20729;SDS011;10526;50.850;12.928;2023-04-08T18:11:53;20.60;;;8.73;;
20729;SDS011;10526;50.850;12.928;2023-04-08T18:16:15;25.55;;;9.50;;
20729;SDS011;10526;50.850;12.928;2023-04-08T18:20:38;23.33;;;9.68;;
20729;SDS011;10526;50.850;12.928;2023-04-08T18:25:03;24.08;;;9.80;;
20729;SDS011;10526;50.850;12.928;2023-04-08T18:29:26;21.45;;;9.05;;
20729;SDS011;10526;50.850;12.928;2023-04-08T18:33:48;23.88;;;10.45;;
20729;SDS011;10526;50.850;12.928;2023-04-08T18:38:11;18.23;;;8.00;;
20729;SDS011;10526;50.850;12.928;2023-04-08T18:42:33;23.27;;;8.63;;
20729;SDS011;10526;50.850;12.928;2023-04-08T18:46:55;22.27;;;8.30;;
20729;SDS011;10526;50.850;12.928;2023-04-08T18:51:17;17.98;;;7.72;;
20729;SDS011;10526;50.850;12.928;2023-04-08T18:55:39;21.02;;;8.13;;
20729;SDS011;10526;50.850;12.928;2023-04-08T19:00:02;20.02;;;8.00;;
20729;SDS011;10526;50.850;12.928;2023-04-08T19:04:25;19.73;;;7.82;;
20729;SDS011;10526;50.850;12.928;2023-04-08T19:08:47;19.13;;;7.63;;
20729;SDS011;10526;50.850;12.928;2023-04-08T19:13:09;23.00;;;8.85;;
20729;SDS011;10526;50.850;12.928;2023-04-08T19:17:32;22.23;;;8.10;;
20729;SDS011;10526;50.850;12.928;2023-04-08T19:21:54;21.05;;;9.10;;
20729;SDS011;10526;50.850;12.928;2023-04-08T19:26:17;24.55;;;9.85;;
20729;SDS011;10526;50.850;12.928;2023-04-08T19:30:39;22.75;;;11.63;;
20729;SDS011;10526;50.850;12.928;2023-04-08T19:35:01;24.98;;;10.27;;
20729;SDS011;10526;50.850;12.928;2023-04-08T19:39:24;20.30;;;9.35;;
20729;SDS011;10526;50.850;12.928;2023-04-08T19:43:48;25.05;;;9.90;;
20729;SDS011;10526;50.850;12.928;2023-04-08T19:48:11;25.85;;;9.75;;
20729;SDS011;10526;50.850;12.928;2023-04-08T19:52:33;25.65;;;10.75;;
20729;SDS011;10526;50.850;12.928;2023-04-08T19:56:56;25.30;;;10.52;;
20729;SDS011;10526;50.850;12.928;2023-04-08T20:01:18;23.48;;;10.68;;
20729;SDS011;10526;50.850;12.928;2023-04-08T20:05:40;34.92;;;10.95;;
20729;SDS011;10526;50.850;12.928;2023-04-08T20:10:03;25.25;;;10.35;;
20729;SDS011;10526;50.850;12.928;2023-04-08T20:14:25;22.27;;;9.98;;
20729;SDS011;10526;50.850;12.928;2023-04-08T20:18:47;20.98;;;9.77;;
20729;SDS011;10526;50.850;12.928;2023-04-08T20:23:10;24.60;;;9.73;;
20729;SDS011;10526;50.850;12.928;2023-04-08T20:27:33;20.40;;;9.43;;
20729;SDS011;10526;50.850;12.928;2023-04-08T20:31:56;26.23;;;10.77;;
20729;SDS011;10526;50.850;12.928;2023-04-08T20:36:19;27.65;;;10.18;;
20729;SDS011;10526;50.850;12.928;2023-04-08T20:40:42;26.60;;;11.35;;
20729;SDS011;10526;50.850;12.928;2023-04-08T20:45:05;22.27;;;10.13;;
20729;SDS011;10526;50.850;12.928;2023-04-08T20:49:28;25.83;;;10.02;;
20729;SDS011;10526;50.850;12.928;2023-04-08T20:53:50;22.85;;;9.45;;
20729;SDS011;10526;50.850;12.928;2023-04-08T20:58:12;25.67;;;11.10;;
20729;SDS011;10526;50.850;12.928;2023-04-08T21:02:34;27.67;;;11.15;;
20729;SDS011;10526;50.850;12.928;2023-04-08T21:06:57;27.90;;;11.18;;
20729;SDS011;10526;50.850;12.928;2023-04-08T21:11:19;28.40;;;10.23;;
20729;SDS011;10526;50.850;12.928;2023-04-08T21:15:41;30.45;;;11.07;;
20729;SDS011;10526;50.850;12.928;2023-04-08T21:20:04;22.58;;;9.65;;
20729;SDS011;10526;50.850;12.928;2023-04-08T21:24:27;25.10;;;9.15;;
20729;SDS011;10526;50.850;12.928;2023-04-08T21:28:50;23.20;;;10.52;;
20729;SDS011;10526;50.850;12.928;2023-04-08T21:33:13;26.10;;;9.57;;
20729;SDS011;10526;50.850;12.928;2023-04-08T21:37:35;24.27;;;10.10;;
20729;SDS011;10526;50.850;12.928;2023-04-08T21:41:57;21.45;;;8.77;;
20729;SDS011;10526;50.850;12.928;2023-04-08T21:46:19;25.10;;;11.00;;
20729;SDS011;10526;50.850;12.928;2023-04-08T21:50:41;27.75;;;10.02;;
20729;SDS011;10526;50.850;12.928;2023-04-08T21:55:06;33.28;;;11.70;;
20729;SDS011;10526;50.850;12.928;2023-04-08T21:59:29;22.42;;;8.50;;
20729;SDS011;10526;50.850;12.928;2023-04-08T22:03:51;21.95;;;9.70;;
20729;SDS011;10526;50.850;12.928;2023-04-08T22:08:14;26.75;;;11.85;;
20729;SDS011;10526;50.850;12.928;2023-04-08T22:12:36;18.65;;;9.30;;
20729;SDS011;10526;50.850;12.928;2023-04-08T22:16:58;25.15;;;12.10;;
20729;SDS011;10526;50.850;12.928;2023-04-08T22:21:20;29.05;;;11.02;;
20729;SDS011;10526;50.850;12.928;2023-04-08T22:25:43;20.45;;;9.70;;
20729;SDS011;10526;50.850;12.928;2023-04-08T22:30:10;25.05;;;10.32;;
20729;SDS011;10526;50.850;12.928;2023-04-08T22:34:33;19.90;;;9.55;;
20729;SDS011;10526;50.850;12.928;2023-04-08T22:38:56;28.98;;;9.88;;
20729;SDS011;10526;50.850;12.928;2023-04-08T22:43:18;32.97;;;11.27;;
20729;SDS011;10526;50.850;12.928;2023-04-08T22:47:40;19.55;;;10.15;;
20729;SDS011;10526;50.850;12.928;2023-04-08T22:52:02;21.63;;;10.05;;
20729;SDS011;10526;50.850;12.928;2023-04-08T22:56:24;19.58;;;9.25;;
20729;SDS011;10526;50.850;12.928;2023-04-08T23:00:48;22.63;;;10.05;;
20729;SDS011;10526;50.850;12.928;2023-04-08T23:05:11;25.73;;;10.18;;
20729;SDS011;10526;50.850;12.928;2023-04-08T23:09:33;21.00;;;10.93;;
20729;SDS011;10526;50.850;12.928;2023-04-08T23:13:55;27.52;;;11.10;;
20729;SDS011;10526;50.850;12.928;2023-04-08T23:18:17;34.08;;;13.02;;
20729;SDS011;10526;50.850;12.928;2023-04-08T23:22:39;28.15;;;11.18;;
20729;SDS011;10526;50.850;12.928;2023-04-08T23:27:01;25.15;;;11.02;;
20729;SDS011;10526;50.850;12.928;2023-04-08T23:31:23;26.95;;;11.32;;
20729;SDS011;10526;50.850;12.928;2023-04-08T23:35:45;23.15;;;10.77;;
20729;SDS011;10526;50.850;12.928;2023-04-08T23:40:08;22.98;;;10.85;;
20729;SDS011;10526;50.850;12.928;2023-04-08T23:44:30;28.65;;;11.75;;
20729;SDS011;10526;50.850;12.928;2023-04-08T23:48:52;25.90;;;11.43;;
20729;SDS011;10526;50.850;12.928;2023-04-08T23:53:14;22.58;;;9.50;;
20729;SDS011;10526;50.850;12.928;2023-04-08T23:57:36;26.15;;;12.43;;
